Time;durP1;ratioP1;P1;durP2;ratioP2;P2;SDS_P1;SDS_P2;PMS_P1;PMS_P2;Temp;Humidity;BMP_temperature;BMP_pressure;BME280_temperature;BME280_humidity;BME280_pressure;Samples;Min_cycle;Max_cycle;Signal;HPM_P1;HPM_P2
2022/12/31 00:01:36;;;;;;;;;;;20.70;64.30;;;;;;1595175;74;757;-76
2022/12/31 00:03:38;;;;;;;;;;;20.70;64.40;;;;;;1587070;74;1930;-76
2022/12/31 00:05:40;;;;;;;;;;;20.70;64.30;;;;;;1600667;74;728;-76
2022/12/31 00:07:42;;;;;;;;;;;20.70;64.30;;;;;;1561150;75;735;-76
2022/12/31 00:09:44;;;;;;;;;;;20.70;64.30;;;;;;1588552;74;1112;-75
2022/12/31 00:11:46;;;;;;;;;;;20.80;64.30;;;;;;1598041;74;1418;-76
2022/12/31 00:13:47;;;;;;;;;;;20.70;64.30;;;;;;1596062;74;709;-76
2022/12/31 00:15:49;;;;;;;;;;;20.70;64.30;;;;;;1593896;74;731;-73
2022/12/31 00:17:51;;;;;;;;;;;20.70;64.30;;;;;;1582455;74;630;-76
2022/12/31 00:19:53;;;;;;;;;;;20.60;64.20;;;;;;1565688;75;1153;-76
2022/12/31 00:21:55;;;;;;;;;;;20.70;64.30;;;;;;1594947;74;734;-76
2022/12/31 00:23:57;;;;;;;;;;;20.80;64.30;;;;;;1589752;74;1952;-74
2022/12/31 00:26:06;;;;;;;;;;;20.80;64.30;;;;;;1584741;73;1533;-76
2022/12/31 00:28:08;;;;;;;;;;;20.80;64.30;;;;;;1563729;74;1146;-76
2022/12/31 00:30:10;;;;;;;;;;;20.70;64.30;;;;;;1598277;73;712;-76
2022/12/31 00:32:12;;;;;;;;;;;20.70;64.30;;;;;;1597761;73;708;-77
2022/12/31 00:34:14;;;;;;;;;;;20.70;64.30;;;;;;1584573;73;705;-76
2022/12/31 00:36:16;;;;;;;;;;;20.70;64.30;;;;;;1587883;74;728;-76
2022/12/31 00:38:18;;;;;;;;;;;20.70;64.20;;;;;;1593562;74;1576;-76
2022/12/31 00:40:20;;;;;;;;;;;20.70;64.30;;;;;;1600277;73;716;-76
2022/12/31 00:42:22;;;;;;;;;;;20.70;64.30;;;;;;1601133;73;722;-76
2022/12/31 00:44:24;;;;;;;;;;;20.70;64.30;;;;;;1593409;73;1937;-76
2022/12/31 00:46:26;;;;;;;;;;;20.70;64.30;;;;;;1596356;73;678;-76
2022/12/31 00:48:28;;;;;;;;;;;20.70;64.30;;;;;;1590134;73;1192;-76
2022/12/31 00:50:30;;;;;;;;;;;20.70;64.30;;;;;;1595807;73;714;-77
2022/12/31 00:52:31;;;;;;;;;;;20.80;64.30;;;;;;1596420;73;1321;-76
2022/12/31 00:54:33;;;;;;;;;;;20.70;64.30;;;;;;1594277;73;742;-76
2022/12/31 00:56:35;;;;;;;;;;;20.70;64.20;;;;;;1586857;74;683;-77
2022/12/31 00:58:37;;;;;;;;;;;20.70;64.30;;;;;;1559279;75;1125;-77
2022/12/31 01:00:39;;;;;;;;;;;20.70;64.20;;;;;;1541248;76;651;-77
2022/12/31 01:02:41;;;;;;;;;;;20.70;64.20;;;;;;1585467;74;657;-77
2022/12/31 01:04:43;;;;;;;;;;;20.60;64.10;;;;;;1565082;75;1933;-77
2022/12/31 01:06:45;;;;;;;;;;;20.70;64.20;;;;;;1584008;74;1510;-77
2022/12/31 01:08:50;;;;;;;;;;;20.70;64.20;;;;;;1591396;74;1129;-77
2022/12/31 01:13:12;;;;;;;;;;;20.70;64.20;;;;;;1590728;74;663;-77
2022/12/31 01:15:14;;;;;;;;;;;20.70;64.20;;;;;;1581076;74;719;-77
2022/12/31 01:17:16;;;;;;;;;;;20.70;64.20;;;;;;1593134;74;749;-75
2022/12/31 01:19:19;;;;;;;;;;;20.70;64.20;;;;;;1564256;75;1070;-77
2022/12/31 01:21:21;;;;;;;;;;;20.70;64.20;;;;;;1595366;74;1413;-76
2022/12/31 01:23:23;;;;;;;;;;;20.70;64.20;;;;;;1593023;74;741;-76
2022/12/31 01:25:25;;;;;;;;;;;20.70;64.20;;;;;;1593566;74;1921;-77
2022/12/31 01:27:26;;;;;;;;;;;20.70;64.10;;;;;;1590466;74;670;-77
2022/12/31 01:29:28;;;;;;;;;;;20.70;64.20;;;;;;1588620;74;1100;-76
2022/12/31 01:31:30;;;;;;;;;;;20.70;64.20;;;;;;1579803;74;785;-77
2022/12/31 01:33:32;;;;;;;;;;;20.70;64.20;;;;;;1556742;75;719;-76
2022/12/31 01:35:35;;;;;;;;;;;20.70;64.20;;;;;;1570306;74;1377;-74
2022/12/31 01:37:37;;;;;;;;;;;20.70;64.10;;;;;;1593888;73;754;-74
2022/12/31 01:39:39;;;;;;;;;;;20.70;64.10;;;;;;1588389;73;1192;-76
2022/12/31 01:41:42;;;;;;;;;;;20.70;64.10;;;;;;1586673;74;870;-77
2022/12/31 01:43:45;;;;;;;;;;;20.70;64.10;;;;;;1597549;74;1941;-78
2022/12/31 01:45:49;;;;;;;;;;;20.70;64.10;;;;;;1581394;73;725;-76
2022/12/31 01:47:56;;;;;;;;;;;20.70;64.10;;;;;;1572551;74;706;-77
2022/12/31 01:49:59;;;;;;;;;;;20.70;64.10;;;;;;1587666;74;1416;-77
2022/12/31 01:52:02;;;;;;;;;;;20.60;64.00;;;;;;1597526;73;720;-77
2022/12/31 01:54:05;;;;;;;;;;;20.70;64.20;;;;;;1592759;74;1054;-76
2022/12/31 01:56:07;;;;;;;;;;;20.70;64.10;;;;;;1582016;74;761;-76
2022/12/31 01:58:13;;;;;;;;;;;20.70;64.10;;;;;;1555881;75;1130;-76
2022/12/31 02:00:15;;;;;;;;;;;20.70;64.10;;;;;;1585515;74;702;-77
2022/12/31 02:02:17;;;;;;;;;;;20.80;64.10;;;;;;1591090;74;746;-76
2022/12/31 02:04:19;;;;;;;;;;;20.70;64.10;;;;;;1571681;74;1934;-78
2022/12/31 02:06:21;;;;;;;;;;;20.70;64.10;;;;;;1576692;73;731;-76
2022/12/31 02:08:23;;;;;;;;;;;20.70;64.10;;;;;;1595760;74;1100;-76
2022/12/31 02:10:25;;;;;;;;;;;20.70;64.10;;;;;;1598608;74;719;-73
2022/12/31 02:12:27;;;;;;;;;;;20.70;64.10;;;;;;1593123;74;724;-76
2022/12/31 02:14:30;;;;;;;;;;;20.70;64.00;;;;;;1590157;74;912;-76
2022/12/31 02:16:34;;;;;;;;;;;20.60;63.90;;;;;;1584645;74;1413;-74
2022/12/31 02:18:43;;;;;;;;;;;20.70;64.00;;;;;;1569479;74;1100;-76
2022/12/31 02:20:50;;;;;;;;;;;20.70;64.10;;;;;;1571860;74;1196;-76
2022/12/31 02:23:05;;;;;;;;;;;20.80;64.00;;;;;;1570278;74;688;-76
2022/12/31 02:25:15;;;;;;;;;;;20.70;64.00;;;;;;1587737;74;1932;-75
2022/12/31 02:27:24;;;;;;;;;;;20.70;64.00;;;;;;1575100;74;686;-76
2022/12/31 02:29:37;;;;;;;;;;;20.70;64.00;;;;;;1573109;74;1133;-76
2022/12/31 02:31:41;;;;;;;;;;;20.70;64.00;;;;;;1573996;74;1571;-76
2022/12/31 02:33:52;;;;;;;;;;;20.70;64.00;;;;;;1565963;74;1731;-76
2022/12/31 02:35:57;;;;;;;;;;;20.70;64.00;;;;;;1578291;73;722;-75
2022/12/31 02:38:01;;;;;;;;;;;20.70;64.00;;;;;;1573154;74;1171;-76
2022/12/31 02:40:03;;;;;;;;;;;20.70;64.10;;;;;;1561246;75;1573;-76
2022/12/31 02:42:05;;;;;;;;;;;20.70;64.00;;;;;;1600615;74;737;-76
2022/12/31 02:44:23;;;;;;;;;;;20.70;64.00;;;;;;1593914;74;1930;-74
2022/12/31 02:46:27;;;;;;;;;;;20.70;64.00;;;;;;1596826;74;1634;-76
2022/12/31 02:48:37;;;;;;;;;;;20.80;64.00;;;;;;1561570;75;1609;-75
2022/12/31 02:50:54;;;;;;;;;;;20.70;64.00;;;;;;1586327;74;681;-74
2022/12/31 02:52:48;;;;;;;;;;;20.70;64.00;;;;;;1584235;74;1653;-74
2022/12/31 02:54:57;;;;;;;;;;;20.70;64.00;;;;;;1598979;74;1107;-77
2022/12/31 02:57:07;;;;;;;;;;;20.70;64.00;;;;;;1574282;74;698;-76
2022/12/31 03:04:30;;;;;;;;;;;20.70;64.00;;;;;;1579240;73;597;-77
2022/12/31 03:05:58;;;;;;;;;;;20.70;64.00;;;;;;1582140;74;1923;-76
2022/12/31 03:08:00;;;;;;;;;;;20.60;63.90;;;;;;1595201;74;1125;-75
2022/12/31 03:10:02;;;;;;;;;;;20.70;64.00;;;;;;1595952;74;729;-76
2022/12/31 03:14:24;;;;;;;;;;;20.70;64.10;;;;;;1583478;74;1615;-76
2022/12/31 03:16:26;;;;;;;;;;;20.70;64.00;;;;;;1589659;73;643;-76
2022/12/31 03:22:58;;;;;;;;;;;20.70;64.00;;;;;;1594116;74;724;-77
2022/12/31 03:27:29;;;;;;;;;;;20.60;63.90;;;;;;1578733;74;1541;-76
2022/12/31 03:29:31;;;;;;;;;;;20.70;64.00;;;;;;1572631;74;1121;-76
2022/12/31 03:31:33;;;;;;;;;;;20.70;64.10;;;;;;1588093;74;738;-76
2022/12/31 03:33:36;;;;;;;;;;;20.60;64.00;;;;;;1590016;74;755;-76
2022/12/31 03:35:38;;;;;;;;;;;20.70;64.00;;;;;;1582521;74;765;-76
2022/12/31 03:37:40;;;;;;;;;;;20.60;63.90;;;;;;1592257;74;719;-75
2022/12/31 03:39:41;;;;;;;;;;;20.70;64.10;;;;;;1586669;74;1170;-76
2022/12/31 03:41:43;;;;;;;;;;;20.60;64.00;;;;;;1581150;74;1457;-76
2022/12/31 03:43:45;;;;;;;;;;;20.70;64.10;;;;;;1584256;73;721;-76
2022/12/31 03:45:48;;;;;;;;;;;20.70;64.10;;;;;;1592424;74;1940;-76
2022/12/31 03:47:50;;;;;;;;;;;20.60;64.00;;;;;;1591392;74;751;-76
2022/12/31 03:49:52;;;;;;;;;;;20.70;64.10;;;;;;1588507;74;1092;-75
2022/12/31 03:51:53;;;;;;;;;;;20.60;64.00;;;;;;1584267;74;672;-74
2022/12/31 03:53:55;;;;;;;;;;;20.70;64.10;;;;;;1595099;74;796;-76
2022/12/31 03:55:57;;;;;;;;;;;20.70;64.10;;;;;;1599030;74;1297;-76
2022/12/31 03:57:59;;;;;;;;;;;20.70;64.00;;;;;;1561493;75;1129;-76
2022/12/31 04:00:01;;;;;;;;;;;20.70;64.10;;;;;;1601113;74;716;-76
2022/12/31 04:02:03;;;;;;;;;;;20.70;64.10;;;;;;1556208;75;692;-75
2022/12/31 04:04:05;;;;;;;;;;;20.70;64.10;;;;;;1571715;73;775;-75
2022/12/31 04:06:07;;;;;;;;;;;20.70;64.10;;;;;;1562639;74;1946;-77
2022/12/31 04:08:09;;;;;;;;;;;20.70;64.00;;;;;;1587865;74;1147;-76
2022/12/31 04:10:11;;;;;;;;;;;20.70;64.10;;;;;;1594737;74;1428;-76
2022/12/31 04:12:13;;;;;;;;;;;20.70;64.10;;;;;;1597729;74;746;-77
2022/12/31 04:14:16;;;;;;;;;;;20.70;64.00;;;;;;1599613;74;731;-76
2022/12/31 04:16:18;;;;;;;;;;;20.80;64.10;;;;;;1594070;74;720;-76
2022/12/31 04:18:19;;;;;;;;;;;20.70;64.00;;;;;;1599420;74;1143;-76
2022/12/31 04:20:21;;;;;;;;;;;20.70;64.00;;;;;;1623908;71;2064;-75
2022/12/31 04:22:23;;;;;;;;;;;20.70;64.00;;;;;;1636064;71;712;-75
2022/12/31 04:24:25;;;;;;;;;;;20.70;64.00;;;;;;1625619;71;1503;-75
2022/12/31 04:26:27;;;;;;;;;;;20.70;64.00;;;;;;1651038;70;1913;-75
2022/12/31 04:28:29;;;;;;;;;;;20.70;64.00;;;;;;1654389;70;712;-74
2022/12/31 04:30:31;;;;;;;;;;;20.80;64.10;;;;;;1658685;70;1195;-75
2022/12/31 04:32:33;;;;;;;;;;;20.70;64.10;;;;;;1662669;71;699;-75
2022/12/31 04:34:34;;;;;;;;;;;20.70;64.00;;;;;;1681977;70;632;-75
2022/12/31 04:36:36;;;;;;;;;;;20.80;64.00;;;;;;1681006;70;741;-76
2022/12/31 04:38:38;;;;;;;;;;;20.70;64.10;;;;;;1679855;70;1550;-75
2022/12/31 04:41:15;;;;;;;;;;;20.70;64.10;;;;;;1684135;70;1092;-75
2022/12/31 04:42:44;;;;;;;;;;;20.80;64.10;;;;;;1679463;70;961;-77
2022/12/31 04:44:45;;;;;;;;;;;20.70;64.00;;;;;;1684184;70;1936;-75
2022/12/31 04:46:47;;;;;;;;;;;20.70;64.00;;;;;;1673399;70;583;-75
2022/12/31 04:48:49;;;;;;;;;;;20.70;64.00;;;;;;1678766;70;1135;-76
2022/12/31 04:50:52;;;;;;;;;;;20.80;64.00;;;;;;1676375;70;751;-73
2022/12/31 04:52:53;;;;;;;;;;;20.80;64.00;;;;;;1672435;70;1478;-76
2022/12/31 04:54:55;;;;;;;;;;;20.70;64.00;;;;;;1676331;70;748;-74
2022/12/31 04:56:57;;;;;;;;;;;20.80;64.00;;;;;;1672780;70;701;-75
2022/12/31 04:58:59;;;;;;;;;;;20.70;64.00;;;;;;1679399;70;1152;-75
2022/12/31 05:01:01;;;;;;;;;;;20.80;64.00;;;;;;1670245;70;697;-74
2022/12/31 05:03:03;;;;;;;;;;;20.70;64.00;;;;;;1672866;70;706;-75
2022/12/31 05:05:05;;;;;;;;;;;20.70;64.00;;;;;;1673545;70;1976;-77
2022/12/31 05:07:07;;;;;;;;;;;20.70;64.00;;;;;;1667647;70;1477;-75
2022/12/31 05:09:09;;;;;;;;;;;20.70;64.00;;;;;;1672009;70;1121;-75
2022/12/31 05:11:10;;;;;;;;;;;20.70;64.00;;;;;;1674913;70;696;-75
2022/12/31 05:13:12;;;;;;;;;;;20.80;64.00;;;;;;1683679;70;745;-75
2022/12/31 05:15:14;;;;;;;;;;;20.70;64.00;;;;;;1689864;70;741;-76
2022/12/31 05:17:16;;;;;;;;;;;20.70;64.00;;;;;;1681046;70;712;-75
2022/12/31 05:19:18;;;;;;;;;;;20.70;64.00;;;;;;1687086;70;1142;-74
2022/12/31 05:21:20;;;;;;;;;;;20.80;64.00;;;;;;1676289;70;1569;-75
2022/12/31 05:23:22;;;;;;;;;;;20.80;64.00;;;;;;1650752;71;645;-77
2022/12/31 05:25:24;;;;;;;;;;;20.80;64.00;;;;;;1662494;71;1922;-77
2022/12/31 05:27:26;;;;;;;;;;;20.70;64.00;;;;;;1674938;70;629;-75
2022/12/31 05:29:28;;;;;;;;;;;20.70;64.00;;;;;;1673369;70;1167;-75
2022/12/31 05:31:30;;;;;;;;;;;20.70;64.00;;;;;;1675040;70;726;-73
2022/12/31 05:33:32;;;;;;;;;;;20.80;64.00;;;;;;1676049;70;1454;-75
2022/12/31 05:35:34;;;;;;;;;;;20.80;64.00;;;;;;1669474;70;709;-75
2022/12/31 05:37:35;;;;;;;;;;;20.80;64.00;;;;;;1667356;70;734;-75
2022/12/31 05:39:37;;;;;;;;;;;20.80;64.00;;;;;;1667848;70;1128;-77
2022/12/31 05:41:39;;;;;;;;;;;20.70;64.00;;;;;;1668261;70;718;-75
2022/12/31 05:43:41;;;;;;;;;;;20.80;64.00;;;;;;1664774;70;692;-74
2022/12/31 05:45:43;;;;;;;;;;;20.80;64.00;;;;;;1676911;70;1912;-74
2022/12/31 05:47:45;;;;;;;;;;;20.70;64.00;;;;;;1638690;71;1451;-74
2022/12/31 05:49:47;;;;;;;;;;;20.80;64.00;;;;;;1633128;71;1187;-76
2022/12/31 05:51:49;;;;;;;;;;;20.70;64.00;;;;;;1673420;70;645;-75
2022/12/31 05:53:51;;;;;;;;;;;20.80;64.00;;;;;;1671715;70;718;-76
2022/12/31 05:55:53;;;;;;;;;;;20.80;64.00;;;;;;1673150;70;682;-75
2022/12/31 05:57:54;;;;;;;;;;;20.70;64.00;;;;;;1670601;70;674;-74
2022/12/31 05:59:56;;;;;;;;;;;20.70;64.00;;;;;;1673769;70;1141;-75
2022/12/31 06:01:58;;;;;;;;;;;20.70;64.10;;;;;;1669811;70;1464;-73
2022/12/31 06:04:00;;;;;;;;;;;20.70;64.10;;;;;;1667048;70;776;-74
2022/12/31 06:06:02;;;;;;;;;;;20.70;64.10;;;;;;1669316;70;1938;-75
2022/12/31 06:08:04;;;;;;;;;;;20.80;64.00;;;;;;1674372;70;717;-74
2022/12/31 06:10:06;;;;;;;;;;;20.80;64.10;;;;;;1664577;70;1066;-75
2022/12/31 06:12:08;;;;;;;;;;;20.70;64.10;;;;;;1655182;71;735;-75
2022/12/31 06:14:10;;;;;;;;;;;20.80;64.10;;;;;;1656128;71;727;-76
2022/12/31 06:16:12;;;;;;;;;;;20.70;64.10;;;;;;1647682;71;1460;-75
2022/12/31 06:18:14;;;;;;;;;;;20.70;64.10;;;;;;1662524;71;720;-76
2022/12/31 06:20:16;;;;;;;;;;;20.70;64.10;;;;;;1653040;70;1129;-75
2022/12/31 06:22:18;;;;;;;;;;;20.70;64.10;;;;;;1654084;71;690;-75
2022/12/31 06:24:19;;;;;;;;;;;20.80;64.10;;;;;;1660989;71;725;-76
2022/12/31 06:26:21;;;;;;;;;;;20.70;64.10;;;;;;1683833;70;1945;-74
2022/12/31 06:28:23;;;;;;;;;;;20.80;64.10;;;;;;1683871;70;747;-76
2022/12/31 06:30:25;;;;;;;;;;;20.70;64.10;;;;;;1692989;70;1491;-76
2022/12/31 06:32:27;;;;;;;;;;;20.80;64.10;;;;;;1721537;68;717;-75
2022/12/31 06:34:29;;;;;;;;;;;20.80;64.10;;;;;;1720475;68;716;-75
2022/12/31 06:36:31;;;;;;;;;;;20.80;64.10;;;;;;1706180;68;729;-75
2022/12/31 06:38:33;;;;;;;;;;;20.80;64.10;;;;;;1720934;68;711;-75
2022/12/31 06:40:36;;;;;;;;;;;20.70;64.10;;;;;;1718852;68;1109;-75
2022/12/31 06:42:38;;;;;;;;;;;20.80;64.10;;;;;;1723333;68;640;-77
2022/12/31 06:44:40;;;;;;;;;;;20.70;64.10;;;;;;1709743;68;1420;-75
2022/12/31 06:46:42;;;;;;;;;;;20.70;64.10;;;;;;1722052;68;1944;-74
2022/12/31 06:48:44;;;;;;;;;;;20.70;64.20;;;;;;1716697;68;619;-77
2022/12/31 06:50:46;;;;;;;;;;;20.70;64.10;;;;;;1701082;68;1199;-75
2022/12/31 06:52:48;;;;;;;;;;;20.70;64.20;;;;;;1707193;68;686;-76
2022/12/31 06:54:50;;;;;;;;;;;20.80;64.10;;;;;;1719198;68;734;-74
2022/12/31 06:56:52;;;;;;;;;;;20.80;64.10;;;;;;1700822;68;716;-75
2022/12/31 06:58:54;;;;;;;;;;;20.80;64.10;;;;;;1701326;68;1485;-75
2022/12/31 07:00:57;;;;;;;;;;;20.80;64.10;;;;;;1703054;68;736;-76
2022/12/31 07:03:16;;;;;;;;;;;20.80;64.10;;;;;;1706853;68;1025;-74
2022/12/31 07:05:23;;;;;;;;;;;20.70;64.10;;;;;;1714456;68;1100;-76
2022/12/31 07:07:41;;;;;;;;;;;20.70;64.10;;;;;;1710788;68;1935;-74
2022/12/31 07:09:57;;;;;;;;;;;20.80;64.10;;;;;;1713177;68;1152;-74
2022/12/31 07:12:03;;;;;;;;;;;20.80;64.20;;;;;;1637743;71;1516;-76
2022/12/31 07:14:10;;;;;;;;;;;20.70;64.10;;;;;;1652848;71;743;-75
2022/12/31 07:16:16;;;;;;;;;;;20.70;64.20;;;;;;1662462;70;706;-75
2022/12/31 07:18:26;;;;;;;;;;;20.70;64.10;;;;;;1643960;71;702;-75
2022/12/31 07:20:28;;;;;;;;;;;20.70;64.20;;;;;;1665241;70;1125;-75
2022/12/31 07:22:29;;;;;;;;;;;20.80;64.20;;;;;;1655542;70;697;-76
2022/12/31 07:24:32;;;;;;;;;;;20.80;64.10;;;;;;1658465;70;725;-75
2022/12/31 07:26:44;;;;;;;;;;;20.70;64.20;;;;;;1647008;71;1930;-75
2022/12/31 07:29:03;;;;;;;;;;;20.80;64.20;;;;;;1650923;70;726;-75
2022/12/31 07:31:12;;;;;;;;;;;20.70;64.10;;;;;;1660561;70;696;-75
2022/12/31 07:33:25;;;;;;;;;;;20.70;64.10;;;;;;1677125;70;769;-76
2022/12/31 07:35:46;;;;;;;;;;;20.80;64.10;;;;;;1663383;70;1237;-75
2022/12/31 07:37:58;;;;;;;;;;;20.80;64.20;;;;;;1655202;70;701;-75
2022/12/31 07:40:01;;;;;;;;;;;20.70;64.10;;;;;;1661361;70;1530;-74
2022/12/31 07:42:20;;;;;;;;;;;20.70;64.20;;;;;;1673754;70;1092;-75
2022/12/31 07:44:29;;;;;;;;;;;20.80;64.20;;;;;;1667891;70;1169;-75
2022/12/31 07:46:42;;;;;;;;;;;20.80;64.20;;;;;;1657225;71;1942;-76
2022/12/31 07:48:44;;;;;;;;;;;20.70;64.20;;;;;;1676980;70;1143;-76
2022/12/31 07:50:46;;;;;;;;;;;20.70;64.20;;;;;;1689435;70;1210;-75
2022/12/31 07:52:48;;;;;;;;;;;20.80;64.20;;;;;;1674367;70;713;-74
2022/12/31 07:54:50;;;;;;;;;;;20.80;64.20;;;;;;1669917;70;1462;-76
2022/12/31 07:56:52;;;;;;;;;;;20.70;64.30;;;;;;1683985;70;684;-75
2022/12/31 07:59:07;;;;;;;;;;;20.80;64.20;;;;;;1681599;70;1144;-77
2022/12/31 08:01:12;;;;;;;;;;;20.80;64.30;;;;;;1675780;70;702;-75
2022/12/31 08:03:22;;;;;;;;;;;20.70;64.20;;;;;;1684759;70;730;-75
2022/12/31 08:05:34;;;;;;;;;;;20.70;64.30;;;;;;1661545;70;707;-75
2022/12/31 08:07:36;;;;;;;;;;;20.80;64.30;;;;;;1653435;71;1930;-76
2022/12/31 08:09:43;;;;;;;;;;;20.70;64.30;;;;;;1658228;70;1538;-76
2022/12/31 08:11:49;;;;;;;;;;;20.70;64.20;;;;;;1671489;70;737;-75
2022/12/31 08:13:52;;;;;;;;;;;20.70;64.20;;;;;;1682251;70;706;-75
2022/12/31 08:15:54;;;;;;;;;;;20.70;64.30;;;;;;1680939;70;729;-75
2022/12/31 08:17:55;;;;;;;;;;;20.70;64.30;;;;;;1675837;70;733;-75
2022/12/31 08:19:57;;;;;;;;;;;20.70;64.20;;;;;;1678803;70;1077;-75
2022/12/31 08:22:01;;;;;;;;;;;20.70;64.30;;;;;;1680501;70;764;-75
2022/12/31 08:24:14;;;;;;;;;;;20.70;64.30;;;;;;1678861;70;1448;-76
2022/12/31 08:26:17;;;;;;;;;;;20.80;64.30;;;;;;1680940;70;1912;-75
2022/12/31 08:28:30;;;;;;;;;;;20.70;64.30;;;;;;1680684;70;1200;-75
2022/12/31 08:30:50;;;;;;;;;;;20.70;64.30;;;;;;1677011;70;1173;-75
2022/12/31 08:32:53;;;;;;;;;;;20.80;64.30;;;;;;1681236;70;689;-75
2022/12/31 08:35:00;;;;;;;;;;;20.80;64.30;;;;;;1654869;71;1102;-74
2022/12/31 08:37:06;;;;;;;;;;;20.80;64.30;;;;;;1614976;71;1470;-75
2022/12/31 08:39:22;;;;;;;;;;;20.70;64.20;;;;;;1654825;70;1156;-75
2022/12/31 08:41:25;;;;;;;;;;;20.70;64.20;;;;;;1657577;70;745;-75
2022/12/31 08:43:32;;;;;;;;;;;20.80;64.20;;;;;;1673261;70;1114;-75
2022/12/31 08:45:44;;;;;;;;;;;20.70;64.30;;;;;;1658420;70;566;-71
2022/12/31 08:47:50;;;;;;;;;;;20.70;64.30;;;;;;1654601;70;1915;-75
2022/12/31 08:49:54;;;;;;;;;;;20.70;64.30;;;;;;1647568;70;1180;-75
2022/12/31 08:51:56;;;;;;;;;;;20.80;64.30;;;;;;1633100;71;1463;-75
2022/12/31 08:53:58;;;;;;;;;;;20.80;64.30;;;;;;1647130;71;668;-74
2022/12/31 08:56:04;;;;;;;;;;;20.70;64.30;;;;;;1704004;68;720;-75
2022/12/31 08:58:25;;;;;;;;;;;20.80;64.30;;;;;;1707951;68;1002;-75
2022/12/31 09:00:27;;;;;;;;;;;20.80;64.30;;;;;;1708033;68;1112;-75
2022/12/31 09:02:31;;;;;;;;;;;20.80;64.30;;;;;;1708764;68;699;-75
2022/12/31 09:04:40;;;;;;;;;;;20.80;64.30;;;;;;1719780;68;1494;-75
2022/12/31 09:06:43;;;;;;;;;;;20.80;64.30;;;;;;1710644;68;1930;-76
2022/12/31 09:08:50;;;;;;;;;;;20.80;64.30;;;;;;1718379;68;716;-75
2022/12/31 09:11:08;;;;;;;;;;;20.80;64.30;;;;;;1706625;68;1005;-76
2022/12/31 09:13:12;;;;;;;;;;;20.70;64.40;;;;;;1716460;68;700;-75
2022/12/31 09:15:15;;;;;;;;;;;20.80;64.30;;;;;;1704769;68;1164;-75
2022/12/31 09:17:34;;;;;;;;;;;20.80;64.30;;;;;;1691634;68;1069;-76
2022/12/31 09:19:36;;;;;;;;;;;20.80;64.30;;;;;;1711934;68;1456;-75
2022/12/31 09:21:39;;;;;;;;;;;20.80;64.40;;;;;;1713370;68;721;-74
2022/12/31 09:23:41;;;;;;;;;;;20.80;64.30;;;;;;1705511;68;582;-71
2022/12/31 09:26:01;;;;;;;;;;;20.80;64.20;;;;;;1700935;68;712;-72
2022/12/31 09:28:05;;;;;;;;;;;20.70;64.40;;;;;;1704650;68;1924;-71
2022/12/31 09:30:13;;;;;;;;;;;20.80;64.30;;;;;;1701217;68;1136;-72
2022/12/31 09:32:19;;;;;;;;;;;20.80;64.30;;;;;;1706810;68;714;-71
2022/12/31 09:34:25;;;;;;;;;;;20.90;64.40;;;;;;1687335;70;1614;-70
2022/12/31 09:36:29;;;;;;;;;;;20.80;64.20;;;;;;1712063;68;738;-71
2022/12/31 09:38:32;;;;;;;;;;;20.80;64.20;;;;;;1702593;68;674;-69
2022/12/31 09:40:39;;;;;;;;;;;20.80;64.20;;;;;;1700482;68;1180;-70
2022/12/31 09:42:42;;;;;;;;;;;20.80;64.20;;;;;;1709343;68;927;-70
2022/12/31 09:45:02;;;;;;;;;;;20.90;64.30;;;;;;1720189;68;1135;-70
2022/12/31 09:47:22;;;;;;;;;;;20.80;64.10;;;;;;1714003;68;1920;-70
2022/12/31 09:49:26;;;;;;;;;;;20.90;64.20;;;;;;1704673;68;1143;-70
2022/12/31 09:51:31;;;;;;;;;;;20.90;64.20;;;;;;1712142;68;1071;-70
2022/12/31 09:53:40;;;;;;;;;;;20.90;64.10;;;;;;1709426;68;710;-70
2022/12/31 09:55:47;;;;;;;;;;;20.90;64.10;;;;;;1698058;68;1067;-70
2022/12/31 09:57:53;;;;;;;;;;;20.90;64.10;;;;;;1700137;68;1221;-71
2022/12/31 09:59:57;;;;;;;;;;;20.90;64.10;;;;;;1715321;68;1122;-70
2022/12/31 10:02:00;;;;;;;;;;;20.90;64.10;;;;;;1715302;68;1499;-70
2022/12/31 10:04:19;;;;;;;;;;;21.00;64.10;;;;;;1714475;68;693;-73
2022/12/31 10:06:28;;;;;;;;;;;20.90;64.00;;;;;;1707685;68;723;-70
2022/12/31 10:08:35;;;;;;;;;;;20.90;64.00;;;;;;1714198;68;1927;-71
2022/12/31 10:10:38;;;;;;;;;;;20.80;63.90;;;;;;1710641;68;1193;-70
2022/12/31 10:12:57;;;;;;;;;;;20.80;64.00;;;;;;1704965;68;1037;-71
2022/12/31 10:15:03;;;;;;;;;;;20.90;64.10;;;;;;1662535;70;1618;-72
2022/12/31 10:17:07;;;;;;;;;;;20.90;64.00;;;;;;1610531;71;1017;-71
2022/12/31 10:19:22;;;;;;;;;;;20.90;63.90;;;;;;1654488;70;1140;-71
2022/12/31 10:21:26;;;;;;;;;;;20.90;63.90;;;;;;1621557;71;2164;-73
2022/12/31 10:23:30;;;;;;;;;;;21.00;63.90;;;;;;1621512;72;840;-73
2022/12/31 10:25:45;;;;;;;;;;;20.90;64.00;;;;;;1617587;72;1453;-73
2022/12/31 10:27:55;;;;;;;;;;;21.00;63.90;;;;;;1583981;73;1964;-73
2022/12/31 10:30:16;;;;;;;;;;;21.00;63.90;;;;;;1616962;72;1478;-73
2022/12/31 10:32:22;;;;;;;;;;;21.00;63.90;;;;;;1631005;72;811;-73
2022/12/31 10:34:31;;;;;;;;;;;21.00;63.80;;;;;;1630220;72;1151;-73
2022/12/31 10:36:52;;;;;;;;;;;21.00;63.70;;;;;;1623604;72;623;-73
2022/12/31 10:39:04;;;;;;;;;;;21.00;63.70;;;;;;1631067;72;712;-73
2022/12/31 10:41:17;;;;;;;;;;;21.10;63.60;;;;;;1625323;71;1617;-73
2022/12/31 10:43:37;;;;;;;;;;;21.00;63.40;;;;;;1608004;72;1477;-73
2022/12/31 10:45:49;;;;;;;;;;;21.10;63.50;;;;;;1597937;74;728;-73
2022/12/31 10:47:52;;;;;;;;;;;21.00;63.30;;;;;;1603278;73;1946;-73
2022/12/31 10:50:12;;;;;;;;;;;21.00;63.30;;;;;;1566373;75;1604;-72
2022/12/31 10:52:25;;;;;;;;;;;21.10;63.40;;;;;;1582755;75;712;-73
2022/12/31 10:54:34;;;;;;;;;;;21.10;63.40;;;;;;1593845;73;924;-73
2022/12/31 10:56:54;;;;;;;;;;;21.10;63.30;;;;;;1602131;73;1141;-72
2022/12/31 10:59:10;;;;;;;;;;;21.10;63.20;;;;;;1601638;74;727;-74
2022/12/31 11:01:35;;;;;;;;;;;21.10;63.20;;;;;;1587252;73;1112;-73
2022/12/31 11:03:42;;;;;;;;;;;21.10;63.20;;;;;;1614732;73;615;-73
2022/12/31 11:05:48;;;;;;;;;;;21.00;63.10;;;;;;1607463;73;1053;-73
2022/12/31 11:07:57;;;;;;;;;;;21.00;63.20;;;;;;1613075;73;1924;-73
2022/12/31 11:10:10;;;;;;;;;;;21.10;63.20;;;;;;1611473;72;1631;-73
2022/12/31 11:12:13;;;;;;;;;;;21.20;63.20;;;;;;1613027;73;1642;-73
2022/12/31 11:14:20;;;;;;;;;;;21.20;63.10;;;;;;1615035;73;725;-72
2022/12/31 11:16:29;;;;;;;;;;;21.10;63.10;;;;;;1614715;73;712;-73
2022/12/31 11:18:50;;;;;;;;;;;21.10;63.00;;;;;;1616306;73;711;-73
2022/12/31 11:20:54;;;;;;;;;;;21.20;63.10;;;;;;1606026;73;1118;-73
2022/12/31 11:22:58;;;;;;;;;;;21.10;63.10;;;;;;1597268;73;697;-73
2022/12/31 11:25:01;;;;;;;;;;;21.20;63.00;;;;;;1602565;73;1428;-73
2022/12/31 11:27:08;;;;;;;;;;;21.20;63.00;;;;;;1600145;73;1930;-73
2022/12/31 11:29:20;;;;;;;;;;;21.10;63.20;;;;;;1608978;73;733;-73
2022/12/31 11:31:24;;;;;;;;;;;21.10;63.30;;;;;;1605584;73;1722;-73
2022/12/31 11:33:36;;;;;;;;;;;21.10;63.30;;;;;;1608108;73;524;-72
2022/12/31 11:35:40;;;;;;;;;;;21.20;63.20;;;;;;1591060;73;1569;-71
2022/12/31 11:37:48;;;;;;;;;;;21.10;63.20;;;;;;1595146;73;839;-71
2022/12/31 11:39:54;;;;;;;;;;;21.10;63.20;;;;;;1602906;73;1397;-72
2022/12/31 11:41:58;;;;;;;;;;;21.20;63.30;;;;;;1609950;73;1640;-73
2022/12/31 11:44:14;;;;;;;;;;;21.10;63.30;;;;;;1604094;73;1034;-71
2022/12/31 11:46:17;;;;;;;;;;;21.10;63.30;;;;;;1598865;73;1759;-71
2022/12/31 11:48:24;;;;;;;;;;;21.20;63.20;;;;;;1603705;73;1908;-72
2022/12/31 11:50:40;;;;;;;;;;;21.10;63.30;;;;;;1593855;73;1206;-71
2022/12/31 11:52:53;;;;;;;;;;;21.20;63.20;;;;;;1593706;73;1157;-71
2022/12/31 11:54:59;;;;;;;;;;;21.30;63.40;;;;;;1572498;75;1608;-71
2022/12/31 11:57:19;;;;;;;;;;;21.20;63.20;;;;;;1604643;73;709;-71
2022/12/31 11:59:21;;;;;;;;;;;21.20;63.30;;;;;;1607350;73;711;-71
2022/12/31 12:01:30;;;;;;;;;;;21.20;63.40;;;;;;1608152;73;1103;-71
2022/12/31 12:03:32;;;;;;;;;;;21.20;63.40;;;;;;1612129;73;621;-71
2022/12/31 12:05:34;;;;;;;;;;;21.20;63.40;;;;;;1613528;73;726;-71
2022/12/31 12:07:36;;;;;;;;;;;21.30;63.40;;;;;;1602907;73;1930;-71
2022/12/31 12:09:38;;;;;;;;;;;21.20;63.40;;;;;;1601704;73;711;-71
2022/12/31 12:11:40;;;;;;;;;;;21.30;63.50;;;;;;1606789;72;1077;-71
2022/12/31 12:13:42;;;;;;;;;;;21.20;63.40;;;;;;1609371;73;717;-71
2022/12/31 12:15:45;;;;;;;;;;;21.20;63.50;;;;;;1610931;73;687;-71
2022/12/31 12:17:48;;;;;;;;;;;21.30;63.50;;;;;;1612049;73;731;-72
2022/12/31 12:19:52;;;;;;;;;;;21.30;63.40;;;;;;1598357;73;1153;-72
2022/12/31 12:21:54;;;;;;;;;;;21.30;63.70;;;;;;1572685;75;1482;-75
2022/12/31 12:24:03;;;;;;;;;;;21.20;63.00;;;;;;1609416;73;726;-72
2022/12/31 12:26:05;;;;;;;;;;;21.20;62.80;;;;;;1601318;73;741;-73
2022/12/31 12:28:14;;;;;;;;;;;21.20;64.20;;;;;;1603725;73;1937;-73
2022/12/31 12:30:20;;;;;;;;;;;21.10;65.00;;;;;;1606401;72;1144;-74
2022/12/31 12:32:23;;;;;;;;;;;21.10;65.30;;;;;;1606295;73;708;-72
2022/12/31 12:34:27;;;;;;;;;;;21.00;65.60;;;;;;1600882;73;683;-73
2022/12/31 12:36:29;;;;;;;;;;;21.10;65.80;;;;;;1593308;73;1404;-72
2022/12/31 12:38:31;;;;;;;;;;;21.00;65.60;;;;;;1605221;73;668;-72
2022/12/31 12:40:33;;;;;;;;;;;21.00;65.60;;;;;;1594082;73;1166;-73